sensor_id;sensor_type;location;lat;lon;timestamp;P1;durP1;ratioP1;P2;durP2;ratioP2
16270;SDS011;8243;49.048;8.396;2022-07-23T00:00:17;9.97;;;7.73;;
16270;SDS011;8243;49.048;8.396;2022-07-23T00:02:43;13.83;;;8.80;;
16270;SDS011;8243;49.048;8.396;2022-07-23T00:05:09;8.10;;;7.40;;
16270;SDS011;8243;49.048;8.396;2022-07-23T00:07:35;8.67;;;7.90;;
16270;SDS011;8243;49.048;8.396;2022-07-23T00:10:01;8.93;;;8.03;;
16270;SDS011;8243;49.048;8.396;2022-07-23T00:12:27;8.53;;;7.73;;
16270;SDS011;8243;49.048;8.396;2022-07-23T00:14:53;9.10;;;8.30;;
16270;SDS011;8243;49.048;8.396;2022-07-23T00:17:19;9.27;;;8.37;;
16270;SDS011;8243;49.048;8.396;2022-07-23T00:19:44;8.43;;;7.50;;
16270;SDS011;8243;49.048;8.396;2022-07-23T00:22:10;8.83;;;7.93;;
16270;SDS011;8243;49.048;8.396;2022-07-23T00:24:35;8.53;;;7.83;;
16270;SDS011;8243;49.048;8.396;2022-07-23T00:27:01;9.70;;;7.37;;
16270;SDS011;8243;49.048;8.396;2022-07-23T00:29:26;8.53;;;7.67;;
16270;SDS011;8243;49.048;8.396;2022-07-23T00:31:52;8.40;;;7.60;;
16270;SDS011;8243;49.048;8.396;2022-07-23T00:34:17;8.37;;;7.67;;
16270;SDS011;8243;49.048;8.396;2022-07-23T00:36:43;8.87;;;8.00;;
16270;SDS011;8243;49.048;8.396;2022-07-23T00:39:08;8.67;;;7.87;;
16270;SDS011;8243;49.048;8.396;2022-07-23T00:41:34;8.83;;;7.63;;
16270;SDS011;8243;49.048;8.396;2022-07-23T00:46:49;8.47;;;7.30;;
16270;SDS011;8243;49.048;8.396;2022-07-23T00:49:19;8.23;;;7.40;;
16270;SDS011;8243;49.048;8.396;2022-07-23T00:51:45;10.80;;;7.47;;
16270;SDS011;8243;49.048;8.396;2022-07-23T00:54:11;8.40;;;7.50;;
16270;SDS011;8243;49.048;8.396;2022-07-23T00:56:37;8.90;;;7.30;;
16270;SDS011;8243;49.048;8.396;2022-07-23T00:59:03;8.17;;;7.37;;
16270;SDS011;8243;49.048;8.396;2022-07-23T01:01:28;7.63;;;6.93;;
16270;SDS011;8243;49.048;8.396;2022-07-23T01:03:54;8.50;;;7.17;;
16270;SDS011;8243;49.048;8.396;2022-07-23T01:06:19;7.77;;;6.97;;
16270;SDS011;8243;49.048;8.396;2022-07-23T01:08:45;8.13;;;7.33;;
16270;SDS011;8243;49.048;8.396;2022-07-23T01:11:11;7.20;;;6.60;;
16270;SDS011;8243;49.048;8.396;2022-07-23T01:13:44;8.27;;;7.40;;
16270;SDS011;8243;49.048;8.396;2022-07-23T01:16:10;7.93;;;7.17;;
16270;SDS011;8243;49.048;8.396;2022-07-23T01:18:36;9.50;;;7.47;;
16270;SDS011;8243;49.048;8.396;2022-07-23T01:21:01;7.80;;;7.00;;
16270;SDS011;8243;49.048;8.396;2022-07-23T01:23:27;8.60;;;6.83;;
16270;SDS011;8243;49.048;8.396;2022-07-23T01:25:53;9.57;;;7.80;;
16270;SDS011;8243;49.048;8.396;2022-07-23T01:28:19;9.30;;;7.60;;
16270;SDS011;8243;49.048;8.396;2022-07-23T01:30:45;8.30;;;7.40;;
16270;SDS011;8243;49.048;8.396;2022-07-23T01:33:11;8.30;;;7.50;;
16270;SDS011;8243;49.048;8.396;2022-07-23T01:35:37;7.83;;;7.07;;
16270;SDS011;8243;49.048;8.396;2022-07-23T01:38:02;8.67;;;7.73;;
16270;SDS011;8243;49.048;8.396;2022-07-23T01:40:28;7.97;;;7.17;;
16270;SDS011;8243;49.048;8.396;2022-07-23T01:46:16;8.57;;;7.77;;
16270;SDS011;8243;49.048;8.396;2022-07-23T01:48:41;8.33;;;7.57;;
16270;SDS011;8243;49.048;8.396;2022-07-23T01:51:07;8.33;;;7.20;;
16270;SDS011;8243;49.048;8.396;2022-07-23T01:53:33;8.13;;;7.43;;
16270;SDS011;8243;49.048;8.396;2022-07-23T01:55:59;8.40;;;7.60;;
16270;SDS011;8243;49.048;8.396;2022-07-23T01:58:26;7.60;;;7.00;;
16270;SDS011;8243;49.048;8.396;2022-07-23T02:00:53;7.70;;;7.07;;
16270;SDS011;8243;49.048;8.396;2022-07-23T02:03:19;7.90;;;7.07;;
16270;SDS011;8243;49.048;8.396;2022-07-23T02:05:44;9.73;;;6.70;;
16270;SDS011;8243;49.048;8.396;2022-07-23T02:08:10;7.43;;;6.77;;
16270;SDS011;8243;49.048;8.396;2022-07-23T02:10:39;7.90;;;7.10;;
16270;SDS011;8243;49.048;8.396;2022-07-23T02:13:04;8.77;;;7.67;;
16270;SDS011;8243;49.048;8.396;2022-07-23T02:15:30;8.33;;;7.37;;
16270;SDS011;8243;49.048;8.396;2022-07-23T02:17:56;10.07;;;7.27;;
16270;SDS011;8243;49.048;8.396;2022-07-23T02:20:21;8.10;;;7.40;;
16270;SDS011;8243;49.048;8.396;2022-07-23T02:22:47;9.03;;;7.20;;
16270;SDS011;8243;49.048;8.396;2022-07-23T02:25:13;8.63;;;7.80;;
16270;SDS011;8243;49.048;8.396;2022-07-23T02:27:38;8.43;;;7.40;;
16270;SDS011;8243;49.048;8.396;2022-07-23T02:30:04;9.37;;;8.10;;
16270;SDS011;8243;49.048;8.396;2022-07-23T02:32:30;9.23;;;8.33;;
16270;SDS011;8243;49.048;8.396;2022-07-23T02:34:56;8.80;;;8.00;;
16270;SDS011;8243;49.048;8.396;2022-07-23T02:37:21;8.43;;;7.67;;
16270;SDS011;8243;49.048;8.396;2022-07-23T02:39:47;8.87;;;7.53;;
16270;SDS011;8243;49.048;8.396;2022-07-23T02:42:13;9.20;;;8.23;;
16270;SDS011;8243;49.048;8.396;2022-07-23T02:44:39;8.57;;;7.67;;
16270;SDS011;8243;49.048;8.396;2022-07-23T02:47:05;8.60;;;7.80;;
16270;SDS011;8243;49.048;8.396;2022-07-23T02:49:31;10.73;;;8.43;;
16270;SDS011;8243;49.048;8.396;2022-07-23T02:51:56;9.57;;;8.20;;
16270;SDS011;8243;49.048;8.396;2022-07-23T02:54:22;8.60;;;7.80;;
16270;SDS011;8243;49.048;8.396;2022-07-23T02:56:48;8.73;;;7.93;;
16270;SDS011;8243;49.048;8.396;2022-07-23T02:59:15;9.27;;;8.43;;
16270;SDS011;8243;49.048;8.396;2022-07-23T03:01:41;8.97;;;8.20;;
16270;SDS011;8243;49.048;8.396;2022-07-23T03:04:06;10.93;;;7.83;;
16270;SDS011;8243;49.048;8.396;2022-07-23T03:06:32;11.20;;;8.43;;
16270;SDS011;8243;49.048;8.396;2022-07-23T03:08:57;8.27;;;7.47;;
16270;SDS011;8243;49.048;8.396;2022-07-23T03:11:23;10.33;;;8.13;;
16270;SDS011;8243;49.048;8.396;2022-07-23T03:13:48;8.63;;;7.83;;
16270;SDS011;8243;49.048;8.396;2022-07-23T03:16:14;8.13;;;7.43;;
16270;SDS011;8243;49.048;8.396;2022-07-23T03:18:39;9.13;;;7.30;;
16270;SDS011;8243;49.048;8.396;2022-07-23T03:21:05;8.43;;;7.60;;
16270;SDS011;8243;49.048;8.396;2022-07-23T03:23:31;8.10;;;7.40;;
16270;SDS011;8243;49.048;8.396;2022-07-23T03:25:57;8.83;;;7.20;;
16270;SDS011;8243;49.048;8.396;2022-07-23T03:28:23;7.03;;;6.20;;
16270;SDS011;8243;49.048;8.396;2022-07-23T03:30:48;7.40;;;6.63;;
16270;SDS011;8243;49.048;8.396;2022-07-23T03:33:14;7.63;;;6.33;;
16270;SDS011;8243;49.048;8.396;2022-07-23T03:35:41;6.60;;;6.00;;
16270;SDS011;8243;49.048;8.396;2022-07-23T03:38:08;6.17;;;4.90;;
16270;SDS011;8243;49.048;8.396;2022-07-23T03:40:33;6.90;;;6.20;;
16270;SDS011;8243;49.048;8.396;2022-07-23T03:42:59;7.63;;;6.10;;
16270;SDS011;8243;49.048;8.396;2022-07-23T03:45:24;6.93;;;6.23;;
16270;SDS011;8243;49.048;8.396;2022-07-23T03:47:50;6.73;;;6.03;;
16270;SDS011;8243;49.048;8.396;2022-07-23T03:50:16;6.90;;;5.67;;
16270;SDS011;8243;49.048;8.396;2022-07-23T03:52:41;7.47;;;5.97;;
16270;SDS011;8243;49.048;8.396;2022-07-23T03:55:07;8.17;;;5.90;;
16270;SDS011;8243;49.048;8.396;2022-07-23T03:57:33;6.60;;;6.00;;
16270;SDS011;8243;49.048;8.396;2022-07-23T03:59:58;7.47;;;5.60;;
16270;SDS011;8243;49.048;8.396;2022-07-23T04:02:24;6.30;;;5.70;;
16270;SDS011;8243;49.048;8.396;2022-07-23T04:04:50;8.77;;;5.13;;
16270;SDS011;8243;49.048;8.396;2022-07-23T04:07:15;5.50;;;5.00;;
16270;SDS011;8243;49.048;8.396;2022-07-23T04:09:42;6.90;;;5.23;;
16270;SDS011;8243;49.048;8.396;2022-07-23T04:12:08;6.03;;;5.43;;
16270;SDS011;8243;49.048;8.396;2022-07-23T04:14:34;5.93;;;4.83;;
16270;SDS011;8243;49.048;8.396;2022-07-23T04:16:59;7.37;;;5.10;;
16270;SDS011;8243;49.048;8.396;2022-07-23T04:19:25;6.20;;;5.40;;
16270;SDS011;8243;49.048;8.396;2022-07-23T04:21:51;6.93;;;5.90;;
16270;SDS011;8243;49.048;8.396;2022-07-23T04:24:17;7.33;;;5.33;;
16270;SDS011;8243;49.048;8.396;2022-07-23T04:26:43;6.43;;;5.60;;
16270;SDS011;8243;49.048;8.396;2022-07-23T04:29:09;8.13;;;6.10;;
16270;SDS011;8243;49.048;8.396;2022-07-23T04:31:35;6.23;;;5.60;;
16270;SDS011;8243;49.048;8.396;2022-07-23T04:34:00;9.47;;;6.20;;
16270;SDS011;8243;49.048;8.396;2022-07-23T04:36:26;6.97;;;6.27;;
16270;SDS011;8243;49.048;8.396;2022-07-23T04:38:52;7.50;;;6.43;;
16270;SDS011;8243;49.048;8.396;2022-07-23T04:41:18;7.70;;;6.83;;
16270;SDS011;8243;49.048;8.396;2022-07-23T04:43:43;7.43;;;6.73;;
16270;SDS011;8243;49.048;8.396;2022-07-23T04:46:09;8.63;;;6.10;;
16270;SDS011;8243;49.048;8.396;2022-07-23T04:48:35;7.13;;;6.33;;
16270;SDS011;8243;49.048;8.396;2022-07-23T04:51:01;7.27;;;6.33;;
16270;SDS011;8243;49.048;8.396;2022-07-23T04:53:26;7.63;;;6.73;;
16270;SDS011;8243;49.048;8.396;2022-07-23T04:55:52;7.40;;;6.60;;
16270;SDS011;8243;49.048;8.396;2022-07-23T04:58:18;8.67;;;6.00;;
16270;SDS011;8243;49.048;8.396;2022-07-23T05:00:43;7.60;;;6.97;;
16270;SDS011;8243;49.048;8.396;2022-07-23T05:03:09;12.07;;;7.40;;
16270;SDS011;8243;49.048;8.396;2022-07-23T05:05:34;10.00;;;7.30;;
16270;SDS011;8243;49.048;8.396;2022-07-23T05:08:00;9.33;;;7.77;;
16270;SDS011;8243;49.048;8.396;2022-07-23T05:10:26;11.07;;;8.20;;
16270;SDS011;8243;49.048;8.396;2022-07-23T05:12:51;8.73;;;7.83;;
16270;SDS011;8243;49.048;8.396;2022-07-23T05:15:17;10.67;;;8.07;;
16270;SDS011;8243;49.048;8.396;2022-07-23T05:17:42;8.43;;;7.17;;
16270;SDS011;8243;49.048;8.396;2022-07-23T05:20:08;9.27;;;7.80;;
16270;SDS011;8243;49.048;8.396;2022-07-23T05:22:34;12.83;;;7.57;;
16270;SDS011;8243;49.048;8.396;2022-07-23T05:24:59;8.37;;;7.30;;
16270;SDS011;8243;49.048;8.396;2022-07-23T05:27:25;9.47;;;7.90;;
16270;SDS011;8243;49.048;8.396;2022-07-23T05:29:50;9.37;;;8.57;;
16270;SDS011;8243;49.048;8.396;2022-07-23T05:32:16;9.23;;;8.30;;
16270;SDS011;8243;49.048;8.396;2022-07-23T05:34:42;10.77;;;9.00;;
16270;SDS011;8243;49.048;8.396;2022-07-23T05:37:07;10.73;;;9.10;;
16270;SDS011;8243;49.048;8.396;2022-07-23T05:39:33;9.43;;;8.47;;
16270;SDS011;8243;49.048;8.396;2022-07-23T05:41:58;9.83;;;8.80;;
16270;SDS011;8243;49.048;8.396;2022-07-23T05:44:24;9.27;;;8.37;;
16270;SDS011;8243;49.048;8.396;2022-07-23T05:46:49;8.77;;;7.97;;
16270;SDS011;8243;49.048;8.396;2022-07-23T05:49:15;8.37;;;7.63;;
16270;SDS011;8243;49.048;8.396;2022-07-23T05:51:40;9.20;;;8.20;;
16270;SDS011;8243;49.048;8.396;2022-07-23T05:54:06;12.23;;;9.17;;
16270;SDS011;8243;49.048;8.396;2022-07-23T05:56:31;9.33;;;8.40;;
16270;SDS011;8243;49.048;8.396;2022-07-23T05:58:57;11.83;;;8.20;;
16270;SDS011;8243;49.048;8.396;2022-07-23T06:01:22;8.90;;;8.10;;
16270;SDS011;8243;49.048;8.396;2022-07-23T06:03:48;9.33;;;8.63;;
16270;SDS011;8243;49.048;8.396;2022-07-23T06:06:13;10.20;;;9.23;;
16270;SDS011;8243;49.048;8.396;2022-07-23T06:08:39;9.60;;;8.80;;
16270;SDS011;8243;49.048;8.396;2022-07-23T06:11:05;9.67;;;8.70;;
16270;SDS011;8243;49.048;8.396;2022-07-23T06:13:30;11.63;;;8.90;;
16270;SDS011;8243;49.048;8.396;2022-07-23T06:15:56;9.00;;;8.17;;
16270;SDS011;8243;49.048;8.396;2022-07-23T06:18:21;8.37;;;7.57;;
16270;SDS011;8243;49.048;8.396;2022-07-23T06:20:47;8.60;;;7.90;;
16270;SDS011;8243;49.048;8.396;2022-07-23T06:23:13;8.57;;;7.73;;
16270;SDS011;8243;49.048;8.396;2022-07-23T06:25:38;9.13;;;8.33;;
16270;SDS011;8243;49.048;8.396;2022-07-23T06:28:04;9.23;;;8.33;;
16270;SDS011;8243;49.048;8.396;2022-07-23T06:30:29;8.60;;;7.73;;
16270;SDS011;8243;49.048;8.396;2022-07-23T06:32:55;9.40;;;7.73;;
16270;SDS011;8243;49.048;8.396;2022-07-23T06:35:21;8.70;;;8.00;;
16270;SDS011;8243;49.048;8.396;2022-07-23T06:37:46;9.00;;;8.13;;
16270;SDS011;8243;49.048;8.396;2022-07-23T06:40:12;8.10;;;7.40;;
16270;SDS011;8243;49.048;8.396;2022-07-23T06:42:38;12.47;;;7.77;;
16270;SDS011;8243;49.048;8.396;2022-07-23T06:45:04;8.73;;;7.93;;
16270;SDS011;8243;49.048;8.396;2022-07-23T06:47:31;8.00;;;7.20;;
16270;SDS011;8243;49.048;8.396;2022-07-23T06:49:56;8.07;;;7.27;;
16270;SDS011;8243;49.048;8.396;2022-07-23T06:52:22;7.73;;;7.13;;
16270;SDS011;8243;49.048;8.396;2022-07-23T06:54:47;8.20;;;7.37;;
16270;SDS011;8243;49.048;8.396;2022-07-23T06:57:14;7.83;;;7.10;;
16270;SDS011;8243;49.048;8.396;2022-07-23T06:59:40;8.63;;;7.83;;
16270;SDS011;8243;49.048;8.396;2022-07-23T07:02:06;10.03;;;8.07;;
16270;SDS011;8243;49.048;8.396;2022-07-23T07:04:32;9.10;;;7.13;;
16270;SDS011;8243;49.048;8.396;2022-07-23T07:06:58;8.33;;;6.77;;
16270;SDS011;8243;49.048;8.396;2022-07-23T07:09:23;6.67;;;6.07;;
16270;SDS011;8243;49.048;8.396;2022-07-23T07:11:49;9.40;;;6.77;;
16270;SDS011;8243;49.048;8.396;2022-07-23T07:14:14;7.43;;;6.73;;
16270;SDS011;8243;49.048;8.396;2022-07-23T07:16:40;8.50;;;6.20;;
16270;SDS011;8243;49.048;8.396;2022-07-23T07:19:06;7.17;;;6.47;;
16270;SDS011;8243;49.048;8.396;2022-07-23T07:21:31;7.00;;;6.30;;
16270;SDS011;8243;49.048;8.396;2022-07-23T07:23:57;9.20;;;6.13;;
16270;SDS011;8243;49.048;8.396;2022-07-23T07:26:22;7.03;;;6.33;;
16270;SDS011;8243;49.048;8.396;2022-07-23T07:28:48;6.70;;;6.10;;
16270;SDS011;8243;49.048;8.396;2022-07-23T07:31:14;6.57;;;5.97;;
16270;SDS011;8243;49.048;8.396;2022-07-23T07:33:39;9.63;;;6.27;;
16270;SDS011;8243;49.048;8.396;2022-07-23T07:36:05;7.43;;;6.00;;
16270;SDS011;8243;49.048;8.396;2022-07-23T07:38:31;11.43;;;6.23;;
16270;SDS011;8243;49.048;8.396;2022-07-23T07:40:56;8.77;;;5.47;;
16270;SDS011;8243;49.048;8.396;2022-07-23T07:43:22;5.77;;;5.10;;
16270;SDS011;8243;49.048;8.396;2022-07-23T07:45:47;5.90;;;5.30;;
16270;SDS011;8243;49.048;8.396;2022-07-23T07:48:13;8.20;;;4.90;;
16270;SDS011;8243;49.048;8.396;2022-07-23T07:50:38;6.03;;;5.43;;
16270;SDS011;8243;49.048;8.396;2022-07-23T07:53:04;8.60;;;5.20;;
16270;SDS011;8243;49.048;8.396;2022-07-23T07:55:29;5.80;;;5.17;;
16270;SDS011;8243;49.048;8.396;2022-07-23T07:57:56;5.33;;;4.83;;
16270;SDS011;8243;49.048;8.396;2022-07-23T08:00:22;7.23;;;4.90;;
16270;SDS011;8243;49.048;8.396;2022-07-23T08:02:51;6.53;;;5.20;;
16270;SDS011;8243;49.048;8.396;2022-07-23T08:05:21;8.60;;;5.00;;
16270;SDS011;8243;49.048;8.396;2022-07-23T08:07:48;7.40;;;5.13;;
16270;SDS011;8243;49.048;8.396;2022-07-23T08:10:14;6.37;;;5.07;;
16270;SDS011;8243;49.048;8.396;2022-07-23T08:15:10;7.43;;;4.97;;
16270;SDS011;8243;49.048;8.396;2022-07-23T08:17:37;7.60;;;5.33;;
16270;SDS011;8243;49.048;8.396;2022-07-23T08:20:03;5.83;;;4.87;;
16270;SDS011;8243;49.048;8.396;2022-07-23T08:25:19;5.13;;;4.63;;
16270;SDS011;8243;49.048;8.396;2022-07-23T08:27:50;6.37;;;5.13;;
16270;SDS011;8243;49.048;8.396;2022-07-23T08:30:17;7.07;;;5.00;;
16270;SDS011;8243;49.048;8.396;2022-07-23T08:32:53;5.87;;;4.80;;
16270;SDS011;8243;49.048;8.396;2022-07-23T08:35:23;6.17;;;4.90;;
16270;SDS011;8243;49.048;8.396;2022-07-23T08:37:56;5.37;;;4.17;;
16270;SDS011;8243;49.048;8.396;2022-07-23T08:40:22;6.60;;;5.20;;
16270;SDS011;8243;49.048;8.396;2022-07-23T08:42:50;5.67;;;4.97;;
16270;SDS011;8243;49.048;8.396;2022-07-23T08:45:20;8.07;;;5.47;;
16270;SDS011;8243;49.048;8.396;2022-07-23T08:47:50;6.03;;;5.43;;
16270;SDS011;8243;49.048;8.396;2022-07-23T08:50:18;7.87;;;5.27;;
16270;SDS011;8243;49.048;8.396;2022-07-23T08:52:44;6.43;;;5.20;;
16270;SDS011;8243;49.048;8.396;2022-07-23T08:55:10;5.80;;;5.20;;
16270;SDS011;8243;49.048;8.396;2022-07-23T08:57:36;5.43;;;4.90;;
16270;SDS011;8243;49.048;8.396;2022-07-23T09:00:03;6.82;;;5.05;;
16270;SDS011;8243;49.048;8.396;2022-07-23T09:02:29;5.90;;;5.30;;
16270;SDS011;8243;49.048;8.396;2022-07-23T09:04:55;6.13;;;5.53;;
16270;SDS011;8243;49.048;8.396;2022-07-23T09:07:20;6.77;;;6.03;;
16270;SDS011;8243;49.048;8.396;2022-07-23T09:09:46;6.73;;;6.13;;
16270;SDS011;8243;49.048;8.396;2022-07-23T09:12:11;8.60;;;6.80;;
16270;SDS011;8243;49.048;8.396;2022-07-23T09:17:11;7.80;;;7.07;;
16270;SDS011;8243;49.048;8.396;2022-07-23T09:19:41;7.07;;;6.47;;
16270;SDS011;8243;49.048;8.396;2022-07-23T09:25:02;8.83;;;7.77;;
16270;SDS011;8243;49.048;8.396;2022-07-23T09:30:28;9.17;;;7.83;;
16270;SDS011;8243;49.048;8.396;2022-07-23T09:33:03;7.37;;;6.33;;
16270;SDS011;8243;49.048;8.396;2022-07-23T09:35:43;6.03;;;5.53;;
16270;SDS011;8243;49.048;8.396;2022-07-23T09:38:08;6.73;;;6.03;;
16270;SDS011;8243;49.048;8.396;2022-07-23T09:40:34;8.20;;;7.47;;
16270;SDS011;8243;49.048;8.396;2022-07-23T09:43:00;7.30;;;6.60;;
16270;SDS011;8243;49.048;8.396;2022-07-23T09:45:25;8.37;;;6.90;;
16270;SDS011;8243;49.048;8.396;2022-07-23T09:47:50;8.20;;;7.40;;
16270;SDS011;8243;49.048;8.396;2022-07-23T09:50:34;8.87;;;6.23;;
16270;SDS011;8243;49.048;8.396;2022-07-23T09:53:00;6.60;;;6.10;;
16270;SDS011;8243;49.048;8.396;2022-07-23T09:55:30;6.90;;;6.40;;
16270;SDS011;8243;49.048;8.396;2022-07-23T09:58:04;6.67;;;6.03;;
16270;SDS011;8243;49.048;8.396;2022-07-23T10:00:32;7.67;;;6.97;;
16270;SDS011;8243;49.048;8.396;2022-07-23T10:02:58;7.57;;;6.87;;
16270;SDS011;8243;49.048;8.396;2022-07-23T10:05:25;7.70;;;6.90;;
16270;SDS011;8243;49.048;8.396;2022-07-23T10:07:51;8.43;;;7.63;;
16270;SDS011;8243;49.048;8.396;2022-07-23T10:10:17;7.83;;;7.00;;
16270;SDS011;8243;49.048;8.396;2022-07-23T10:12:45;7.50;;;6.80;;
16270;SDS011;8243;49.048;8.396;2022-07-23T10:15:43;7.03;;;6.33;;
16270;SDS011;8243;49.048;8.396;2022-07-23T10:18:10;7.10;;;6.43;;
16270;SDS011;8243;49.048;8.396;2022-07-23T10:20:37;7.93;;;7.17;;
16270;SDS011;8243;49.048;8.396;2022-07-23T10:25:59;9.43;;;8.53;;
16270;SDS011;8243;49.048;8.396;2022-07-23T10:28:41;9.20;;;8.37;;
16270;SDS011;8243;49.048;8.396;2022-07-23T10:31:25;8.67;;;7.97;;
16270;SDS011;8243;49.048;8.396;2022-07-23T10:34:07;8.33;;;7.63;;
16270;SDS011;8243;49.048;8.396;2022-07-23T10:36:40;8.20;;;7.50;;
16270;SDS011;8243;49.048;8.396;2022-07-23T10:41:49;8.20;;;6.30;;
16270;SDS011;8243;49.048;8.396;2022-07-23T10:44:17;6.87;;;6.07;;
16270;SDS011;8243;49.048;8.396;2022-07-23T10:46:54;7.00;;;6.40;;
16270;SDS011;8243;49.048;8.396;2022-07-23T10:49:43;7.00;;;6.50;;
16270;SDS011;8243;49.048;8.396;2022-07-23T10:52:16;7.57;;;6.77;;
16270;SDS011;8243;49.048;8.396;2022-07-23T10:54:44;7.77;;;6.77;;
16270;SDS011;8243;49.048;8.396;2022-07-23T10:57:11;8.07;;;6.90;;
16270;SDS011;8243;49.048;8.396;2022-07-23T11:02:35;7.80;;;7.00;;
16270;SDS011;8243;49.048;8.396;2022-07-23T11:05:05;7.97;;;7.27;;
16270;SDS011;8243;49.048;8.396;2022-07-23T11:07:33;8.13;;;7.30;;
16270;SDS011;8243;49.048;8.396;2022-07-23T11:09:59;6.90;;;6.30;;
16270;SDS011;8243;49.048;8.396;2022-07-23T11:17:22;7.93;;;7.20;;
16270;SDS011;8243;49.048;8.396;2022-07-23T11:22:55;6.97;;;6.37;;
16270;SDS011;8243;49.048;8.396;2022-07-23T11:27:46;6.60;;;5.90;;
16270;SDS011;8243;49.048;8.396;2022-07-23T11:32:54;7.73;;;7.03;;
16270;SDS011;8243;49.048;8.396;2022-07-23T11:35:41;6.93;;;6.23;;
16270;SDS011;8243;49.048;8.396;2022-07-23T11:40:41;7.70;;;6.90;;
16270;SDS011;8243;49.048;8.396;2022-07-23T11:43:10;8.23;;;7.43;;
16270;SDS011;8243;49.048;8.396;2022-07-23T11:45:37;7.60;;;6.90;;
16270;SDS011;8243;49.048;8.396;2022-07-23T11:48:17;7.77;;;6.77;;
16270;SDS011;8243;49.048;8.396;2022-07-23T11:50:48;6.93;;;6.03;;
16270;SDS011;8243;49.048;8.396;2022-07-23T11:53:21;7.43;;;6.13;;
16270;SDS011;8243;49.048;8.396;2022-07-23T11:55:47;7.83;;;6.00;;
16270;SDS011;8243;49.048;8.396;2022-07-23T11:58:13;6.57;;;6.00;;
16270;SDS011;8243;49.048;8.396;2022-07-23T12:00:40;6.83;;;6.13;;
16270;SDS011;8243;49.048;8.396;2022-07-23T12:03:06;5.87;;;5.37;;
16270;SDS011;8243;49.048;8.396;2022-07-23T12:05:33;6.43;;;5.77;;
16270;SDS011;8243;49.048;8.396;2022-07-23T12:08:01;6.83;;;6.03;;
16270;SDS011;8243;49.048;8.396;2022-07-23T12:10:32;6.50;;;6.00;;
16270;SDS011;8243;49.048;8.396;2022-07-23T12:13:08;7.00;;;6.30;;
16270;SDS011;8243;49.048;8.396;2022-07-23T12:15:40;6.60;;;5.97;;
16270;SDS011;8243;49.048;8.396;2022-07-23T12:18:09;7.27;;;5.60;;
16270;SDS011;8243;49.048;8.396;2022-07-23T12:20:37;8.03;;;7.23;;
16270;SDS011;8243;49.048;8.396;2022-07-23T12:23:07;7.03;;;6.13;;
16270;SDS011;8243;49.048;8.396;2022-07-23T12:25:35;7.30;;;6.57;;
16270;SDS011;8243;49.048;8.396;2022-07-23T12:28:06;8.17;;;6.50;;
16270;SDS011;8243;49.048;8.396;2022-07-23T12:30:37;8.63;;;6.70;;
16270;SDS011;8243;49.048;8.396;2022-07-23T12:33:12;7.00;;;6.33;;
16270;SDS011;8243;49.048;8.396;2022-07-23T12:38:11;8.77;;;6.97;;
16270;SDS011;8243;49.048;8.396;2022-07-23T12:40:45;6.90;;;6.40;;
16270;SDS011;8243;49.048;8.396;2022-07-23T12:43:21;7.17;;;6.47;;
16270;SDS011;8243;49.048;8.396;2022-07-23T12:46:02;7.10;;;6.40;;
16270;SDS011;8243;49.048;8.396;2022-07-23T12:48:39;8.57;;;6.73;;
16270;SDS011;8243;49.048;8.396;2022-07-23T12:53:53;7.10;;;6.40;;
16270;SDS011;8243;49.048;8.396;2022-07-23T12:56:28;7.00;;;6.40;;
16270;SDS011;8243;49.048;8.396;2022-07-23T12:59:05;7.33;;;6.73;;
16270;SDS011;8243;49.048;8.396;2022-07-23T13:01:35;6.80;;;6.20;;
16270;SDS011;8243;49.048;8.396;2022-07-23T13:04:03;6.60;;;5.97;;
16270;SDS011;8243;49.048;8.396;2022-07-23T13:06:34;7.07;;;6.33;;
16270;SDS011;8243;49.048;8.396;2022-07-23T13:09:05;6.60;;;6.10;;
16270;SDS011;8243;49.048;8.396;2022-07-23T13:11:32;7.20;;;6.00;;
16270;SDS011;8243;49.048;8.396;2022-07-23T13:13:58;6.90;;;6.17;;
16270;SDS011;8243;49.048;8.396;2022-07-23T13:16:25;6.40;;;5.77;;
16270;SDS011;8243;49.048;8.396;2022-07-23T13:18:55;6.13;;;5.37;;
16270;SDS011;8243;49.048;8.396;2022-07-23T13:21:23;6.27;;;5.73;;
16270;SDS011;8243;49.048;8.396;2022-07-23T13:23:49;6.77;;;6.07;;
16270;SDS011;8243;49.048;8.396;2022-07-23T13:26:15;6.30;;;5.67;;
16270;SDS011;8243;49.048;8.396;2022-07-23T13:28:42;6.00;;;5.43;;
16270;SDS011;8243;49.048;8.396;2022-07-23T13:31:08;6.03;;;5.47;;
16270;SDS011;8243;49.048;8.396;2022-07-23T13:33:34;6.40;;;5.80;;
16270;SDS011;8243;49.048;8.396;2022-07-23T13:35:59;8.40;;;5.40;;
16270;SDS011;8243;49.048;8.396;2022-07-23T13:38:25;6.40;;;5.80;;
16270;SDS011;8243;49.048;8.396;2022-07-23T13:40:50;6.03;;;5.50;;
16270;SDS011;8243;49.048;8.396;2022-07-23T13:43:18;6.93;;;6.00;;
16270;SDS011;8243;49.048;8.396;2022-07-23T13:45:46;6.27;;;5.67;;
16270;SDS011;8243;49.048;8.396;2022-07-23T13:48:12;5.67;;;5.27;;
16270;SDS011;8243;49.048;8.396;2022-07-23T13:50:39;6.40;;;5.50;;
16270;SDS011;8243;49.048;8.396;2022-07-23T13:53:06;6.33;;;5.83;;
16270;SDS011;8243;49.048;8.396;2022-07-23T13:55:34;5.67;;;5.17;;
16270;SDS011;8243;49.048;8.396;2022-07-23T13:58:00;5.80;;;5.30;;
16270;SDS011;8243;49.048;8.396;2022-07-23T14:00:26;6.50;;;5.50;;
16270;SDS011;8243;49.048;8.396;2022-07-23T14:02:52;5.55;;;5.15;;
16270;SDS011;8243;49.048;8.396;2022-07-23T14:05:18;7.28;;;5.25;;
16270;SDS011;8243;49.048;8.396;2022-07-23T14:07:44;7.93;;;5.70;;
16270;SDS011;8243;49.048;8.396;2022-07-23T14:10:11;6.67;;;5.37;;
16270;SDS011;8243;49.048;8.396;2022-07-23T14:12:38;5.83;;;5.40;;
16270;SDS011;8243;49.048;8.396;2022-07-23T14:15:04;6.72;;;5.18;;
16270;SDS011;8243;49.048;8.396;2022-07-23T14:17:31;6.00;;;5.40;;
16270;SDS011;8243;49.048;8.396;2022-07-23T14:19:57;6.40;;;5.90;;
16270;SDS011;8243;49.048;8.396;2022-07-23T14:22:23;6.30;;;5.70;;
16270;SDS011;8243;49.048;8.396;2022-07-23T14:24:49;7.13;;;5.70;;
16270;SDS011;8243;49.048;8.396;2022-07-23T14:27:15;5.93;;;5.43;;
16270;SDS011;8243;49.048;8.396;2022-07-23T14:29:41;5.73;;;5.30;;
16270;SDS011;8243;49.048;8.396;2022-07-23T14:32:06;6.80;;;5.60;;
16270;SDS011;8243;49.048;8.396;2022-07-23T14:34:32;6.33;;;5.83;;
16270;SDS011;8243;49.048;8.396;2022-07-23T14:36:58;6.20;;;5.60;;
16270;SDS011;8243;49.048;8.396;2022-07-23T14:39:24;6.37;;;5.67;;
16270;SDS011;8243;49.048;8.396;2022-07-23T14:41:50;6.60;;;6.00;;
16270;SDS011;8243;49.048;8.396;2022-07-23T14:44:15;5.93;;;5.47;;
16270;SDS011;8243;49.048;8.396;2022-07-23T14:46:41;6.57;;;5.97;;
16270;SDS011;8243;49.048;8.396;2022-07-23T14:49:06;6.37;;;5.80;;
16270;SDS011;8243;49.048;8.396;2022-07-23T14:51:32;5.90;;;5.50;;
16270;SDS011;8243;49.048;8.396;2022-07-23T14:53:58;5.70;;;5.13;;
16270;SDS011;8243;49.048;8.396;2022-07-23T14:56:23;6.40;;;5.90;;
16270;SDS011;8243;49.048;8.396;2022-07-23T14:58:49;6.47;;;5.97;;
16270;SDS011;8243;49.048;8.396;2022-07-23T15:01:14;6.03;;;5.53;;
16270;SDS011;8243;49.048;8.396;2022-07-23T15:03:40;6.70;;;5.70;;
16270;SDS011;8243;49.048;8.396;2022-07-23T15:06:06;8.00;;;6.00;;
16270;SDS011;8243;49.048;8.396;2022-07-23T15:08:32;6.33;;;5.73;;
16270;SDS011;8243;49.048;8.396;2022-07-23T15:11:00;6.13;;;5.23;;
16270;SDS011;8243;49.048;8.396;2022-07-23T15:13:25;6.70;;;5.60;;
16270;SDS011;8243;49.048;8.396;2022-07-23T15:15:51;6.20;;;5.60;;
16270;SDS011;8243;49.048;8.396;2022-07-23T15:18:17;5.77;;;5.27;;
16270;SDS011;8243;49.048;8.396;2022-07-23T15:20:42;6.13;;;5.60;;
16270;SDS011;8243;49.048;8.396;2022-07-23T15:23:08;6.80;;;6.20;;
16270;SDS011;8243;49.048;8.396;2022-07-23T15:25:34;7.30;;;6.70;;
16270;SDS011;8243;49.048;8.396;2022-07-23T15:28:00;7.33;;;6.63;;
16270;SDS011;8243;49.048;8.396;2022-07-23T15:30:26;8.10;;;7.30;;
16270;SDS011;8243;49.048;8.396;2022-07-23T15:32:52;7.50;;;6.80;;
16270;SDS011;8243;49.048;8.396;2022-07-23T15:35:18;8.07;;;7.33;;
16270;SDS011;8243;49.048;8.396;2022-07-23T15:37:44;12.27;;;7.20;;
16270;SDS011;8243;49.048;8.396;2022-07-23T15:40:10;7.87;;;7.07;;
16270;SDS011;8243;49.048;8.396;2022-07-23T15:42:36;7.00;;;6.40;;
16270;SDS011;8243;49.048;8.396;2022-07-23T15:45:02;9.23;;;6.80;;
16270;SDS011;8243;49.048;8.396;2022-07-23T15:47:29;8.27;;;7.40;;